Litchfield, Nebraska
Current Conditions -  °F | °C
As of 7:15 AM on Thursday 18 Dec 2014 (Local Time) from KEAR Reporting Station
Overcast Overcast  
Wind Chill: 19°   Ceiling: 1900
Heat Index: 25°   Visibility: 10mi
Dew Point: 21°   Wind: 5mph
Humidity: 86%   Direction: 110°ESE
Pressure: 30.14"   Gusts: NA
Location:  41.16°N, 99.16°W
Report Text: KEAR 181315Z 11004KT 10SM SCT007 OVC019 M04/M06 A3014 RMK AO1
Loading
Personal Weather Stations






























Interactive Weather Map New forecast layout! Learn more

10-Day Weather Forecast

Advertisements
Track Severe Weather on mobile